Terminal Aerodrome Forecast
Issued by NWS

Home | Current Version | Previous Version | Text Only | Print | Product List | Glossary On
Versions: 1 2 3 4 5 6 7 8 9 10 11 12 13 14 15 16 17 18 19 20 21 22 23 24 25 26 27 28 29 30 31 32 33 34 35 36 37 38 39 40 41 42 43 44 45 46 47 48 49 50
000
FTUS43 KLOT 151754 CCB
TAFGYY
TAF COR
KGYY 151754Z 1518/1618 20008KT 6SM -SHRA VCTS OVC010CB
      TEMPO 1518/1522 2SM TSRA BR OVC007CB
     FM152300 07007KT 6SM BR OVC010
     FM160100 02011KT 2SM BR OVC003
     FM160700 05005KT 1SM BR VCSH OVC003
      TEMPO 1609/1613 1/2SM FG VV002
     FM161300 06005KT 2SM BR OVC003
     FM161600 07005KT 4SM BR OVC007=

USA.gov is the U.S. government's official web portal to all federal, state and local government web resources and services.